Time;durP1;ratioP1;P1;durP2;ratioP2;P2;SDS_P1;SDS_P2;PMS_P1;PMS_P2;Temp;Humidity;BMP_temperature;BMP_pressure;BME280_temperature;BME280_humidity;BME280_pressure;Samples;Min_cycle;Max_cycle;Signal;HPM_P1;HPM_P2
2022/08/28 00:01:31;;;;;;;23.30;6.78;;;;;;;24.38;100.00;99720.25;5091408;28;20210;-80
2022/08/28 00:04:00;;;;;;;20.23;6.10;;;;;;;24.63;98.41;99748.19;5093133;28;20201;-77
2022/08/28 00:06:28;;;;;;;29.33;5.93;;;;;;;24.63;97.07;99747.31;5045953;28;20203;-80
2022/08/28 00:08:55;;;;;;;35.03;6.43;;;;;;;24.72;94.11;99757.50;5065564;28;20197;-79
2022/08/28 00:11:22;;;;;;;27.05;5.70;;;;;;;24.63;93.49;99756.13;5081854;28;20219;-77
2022/08/28 00:13:50;;;;;;;26.38;6.50;;;;;;;24.53;93.45;99746.03;5072897;28;20206;-79
2022/08/28 00:16:17;;;;;;;21.10;5.93;;;;;;;24.52;92.01;99744.31;5078600;28;20198;-79
2022/08/28 00:18:45;;;;;;;25.38;6.18;;;;;;;24.62;90.94;99762.38;5083135;28;20199;-79
2022/08/28 00:21:13;;;;;;;25.42;6.05;;;;;;;24.64;90.98;99757.00;5072961;28;20195;-79
2022/08/28 00:23:42;;;;;;;27.60;5.95;;;;;;;24.61;91.09;99755.34;5072699;28;20199;-79
2022/08/28 00:26:08;;;;;;;21.30;5.55;;;;;;;24.60;92.12;99768.69;5072695;28;20269;-77
2022/08/28 00:28:34;;;;;;;18.08;6.60;;;;;;;24.58;92.75;99759.91;5091014;28;20654;-79
2022/08/28 00:31:01;;;;;;;27.52;6.45;;;;;;;24.56;93.02;99761.81;5089024;28;20229;-79
2022/08/28 00:33:31;;;;;;;33.47;6.35;;;;;;;24.66;91.43;99761.28;5083415;28;20206;-79
2022/08/28 00:35:59;;;;;;;24.98;6.47;;;;;;;24.68;90.90;99769.19;5075199;28;20203;-78
2022/08/28 00:38:29;;;;;;;34.40;5.82;;;;;;;24.58;91.73;99741.38;5079402;28;20269;-80
2022/08/28 00:40:59;;;;;;;29.27;6.50;;;;;;;24.60;90.33;99756.28;5072300;28;20194;-80
2022/08/28 00:43:34;;;;;;;24.48;5.70;;;;;;;24.71;89.90;99755.78;5072638;28;20195;-77
2022/08/28 00:46:02;;;;;;;24.05;5.80;;;;;;;24.65;90.02;99743.66;5072538;28;20202;-80
2022/08/28 00:48:29;;;;;;;27.25;6.18;;;;;;;24.67;88.16;99760.38;5072037;28;20588;-80
2022/08/28 00:53:43;;;;;;;21.48;5.45;;;;;;;24.62;88.39;99761.50;5075233;28;20293;-78
2022/08/28 00:56:12;;;;;;;22.63;6.80;;;;;;;24.56;89.41;99749.41;5072464;28;20211;-79
2022/08/28 00:58:42;;;;;;;34.35;5.15;;;;;;;24.43;87.68;99723.56;5080857;28;20209;-80
2022/08/28 01:01:09;;;;;;;21.55;5.70;;;;;;;24.41;88.37;99728.06;5091553;28;20190;-78
2022/08/28 01:03:37;;;;;;;21.55;5.43;;;;;;;24.55;89.50;99757.41;5056369;28;20251;-79
2022/08/28 01:06:04;;;;;;;22.50;5.50;;;;;;;24.51;89.12;99759.34;5083820;28;20210;-79
2022/08/28 01:08:31;;;;;;;25.60;5.68;;;;;;;24.56;88.13;99756.50;5024285;28;20218;-79
2022/08/28 01:11:04;;;;;;;20.65;5.35;;;;;;;24.61;88.16;99759.81;5051719;28;20228;-77
2022/08/28 01:13:32;;;;;;;18.42;5.63;;;;;;;24.09;87.14;99682.69;5056753;28;20198;-79
2022/08/28 01:16:02;;;;;;;18.02;5.15;;;;;;;24.58;85.51;99765.22;5071930;28;20199;-77
2022/08/28 01:18:29;;;;;;;20.67;6.20;;;;;;;24.64;84.42;99762.31;5079501;28;20206;-79
2022/08/28 01:21:08;;;;;;;28.65;6.60;;;;;;;24.73;82.52;99764.50;5079368;28;20211;-75
2022/08/28 01:23:47;;;;;;;32.53;6.55;;;;;;;24.70;83.13;99769.97;5053683;28;20663;-79
2022/08/28 01:26:14;;;;;;;33.35;6.40;;;;;;;24.67;82.93;99770.09;5071590;28;20650;-79
2022/08/28 01:28:41;;;;;;;20.25;5.70;;;;;;;24.61;84.52;99765.09;5072874;28;20195;-79
2022/08/28 01:31:09;;;;;;;21.52;6.07;;;;;;;24.46;85.72;99742.81;5077976;28;20271;-80
2022/08/28 01:33:36;;;;;;;39.20;6.47;;;;;;;24.53;87.51;99770.75;5073833;28;20198;-80
2022/08/28 01:36:03;;;;;;;22.65;5.90;;;;;;;24.51;87.67;99763.78;5072206;28;20202;-80
2022/08/28 01:38:30;;;;;;;28.52;5.72;;;;;;;24.50;87.47;99770.91;5078114;28;21034;-78
2022/08/28 01:40:58;;;;;;;27.15;5.43;;;;;;;24.56;86.27;99767.97;5090525;28;20197;-79
2022/08/28 01:43:27;;;;;;;27.90;6.35;;;;;;;24.52;85.35;99754.91;5090127;28;20681;-78
2022/08/28 01:45:58;;;;;;;22.05;6.15;;;;;;;24.60;85.50;99761.59;5090647;28;20210;-76
2022/08/28 01:48:26;;;;;;;26.50;7.00;;;;;;;24.54;84.90;99758.38;5055770;28;20248;-79
2022/08/28 01:50:54;;;;;;;35.72;6.63;;;;;;;24.51;84.32;99763.78;5082972;28;20233;-79
2022/08/28 01:53:26;;;;;;;24.30;5.70;;;;;;;24.55;86.24;99760.06;5074283;28;20717;-78
2022/08/28 01:55:54;;;;;;;20.92;5.80;;;;;;;24.50;85.35;99762.09;5091228;28;20674;-76
2022/08/28 01:58:27;;;;;;;21.35;5.53;;;;;;;24.26;87.74;99747.34;5084346;28;20206;-79
2022/08/28 02:00:54;;;;;;;24.27;5.47;;;;;;;24.06;88.49;99741.13;5071776;28;20238;-79
2022/08/28 02:03:22;;;;;;;26.05;5.63;;;;;;;24.08;93.68;99759.56;5090871;28;20194;-79
2022/08/28 02:05:49;;;;;;;19.45;5.82;;;;;;;23.88;96.81;99731.34;5068137;28;20205;-80
2022/08/28 02:08:17;;;;;;;28.05;6.50;;;;;;;23.89;100.00;99762.22;5070835;28;20354;-79
2022/08/28 02:10:44;;;;;;;26.95;6.18;;;;;;;23.73;100.00;99742.63;5083766;28;20255;-79
2022/08/28 02:13:12;;;;;;;30.85;6.70;;;;;;;23.94;100.00;99757.56;5090920;28;20228;-78
2022/08/28 02:15:41;;;;;;;19.25;5.30;;;;;;;23.87;100.00;99745.50;5090676;28;20202;-79
2022/08/28 02:18:10;;;;;;;23.10;6.30;;;;;;;23.62;100.00;99736.94;5086133;28;20198;-79
2022/08/28 02:20:37;;;;;;;20.95;6.30;;;;;;;23.69;100.00;99760.44;5090759;28;20198;-79
2022/08/28 02:23:04;;;;;;;27.55;6.78;;;;;;;23.53;100.00;99745.28;5090564;28;20202;-79
2022/08/28 02:25:31;;;;;;;31.08;7.20;;;;;;;23.42;100.00;99742.25;5090877;28;20221;-79
2022/08/28 02:27:58;;;;;;;26.08;6.43;;;;;;;23.41;100.00;99756.34;5089533;28;20229;-80
2022/08/28 02:30:26;;;;;;;26.40;7.75;;;;;;;23.33;100.00;99764.63;5073900;28;20202;-79
2022/08/28 02:32:54;;;;;;;19.13;5.90;;;;;;;23.14;100.00;99719.56;5080804;28;20214;-79
2022/08/28 02:35:23;;;;;;;21.48;6.45;;;;;;;23.33;100.00;99763.78;5036588;28;20663;-78
2022/08/28 02:37:51;;;;;;;19.83;5.78;;;;;;;23.21;100.00;99734.25;5070932;28;20218;-78
2022/08/28 02:40:20;;;;;;;20.55;6.10;;;;;;;23.25;100.00;99737.63;5090753;28;20212;-79
2022/08/28 02:42:47;;;;;;;34.08;6.18;;;;;;;23.41;100.00;99766.94;5077515;28;20218;-79
2022/08/28 02:45:15;;;;;;;21.33;5.57;;;;;;;23.50;100.00;99766.59;5070421;28;20210;-79
2022/08/28 02:47:44;;;;;;;22.02;6.30;;;;;;;23.45;100.00;99766.78;5070528;28;20209;-79
2022/08/28 02:50:15;;;;;;;20.35;6.40;;;;;;;23.51;100.00;99770.94;5070779;28;20580;-80
2022/08/28 02:52:42;;;;;;;26.52;5.72;;;;;;;23.42;100.00;99766.06;5072737;28;20603;-79
2022/08/28 02:55:12;;;;;;;25.48;6.40;;;;;;;23.39;100.00;99763.50;5090347;28;20202;-79
2022/08/28 02:57:39;;;;;;;19.23;5.15;;;;;;;23.32;100.00;99765.56;5088754;28;20281;-79
2022/08/28 03:00:10;;;;;;;21.75;6.30;;;;;;;23.49;100.00;99765.72;5061273;28;20191;-79
2022/08/28 03:02:37;;;;;;;30.45;7.20;;;;;;;23.55;100.00;99772.53;5070405;28;20202;-78
2022/08/28 03:05:05;;;;;;;22.35;6.10;;;;;;;23.64;100.00;99777.44;5034058;28;20628;-79
2022/08/28 03:07:33;;;;;;;20.85;7.28;;;;;;;23.63;100.00;99767.78;5077614;28;20195;-79
2022/08/28 03:10:00;;;;;;;22.35;6.95;;;;;;;23.65;100.00;99765.94;5085834;28;20281;-79
2022/08/28 03:12:26;;;;;;;27.90;6.95;;;;;;;23.57;100.00;99760.97;5083567;28;20234;-79
2022/08/28 03:14:54;;;;;;;24.92;7.82;;;;;;;23.53;100.00;99769.97;5055221;28;20693;-78
2022/08/28 03:17:21;;;;;;;30.45;7.60;;;;;;;23.43;100.00;99766.00;5074054;28;20206;-80
2022/08/28 03:19:49;;;;;;;26.38;8.07;;;;;;;23.20;100.00;99732.53;5061399;28;20202;-79
2022/08/28 03:22:16;;;;;;;31.20;7.15;;;;;;;23.25;100.00;99747.34;5094565;28;20198;-76
2022/08/28 03:24:43;;;;;;;23.52;7.38;;;;;;;23.32;100.00;99765.56;5077716;28;20584;-78
2022/08/28 03:27:11;;;;;;;21.48;7.75;;;;;;;23.34;100.00;99776.06;5073858;28;20245;-79
2022/08/28 03:29:38;;;;;;;29.55;6.68;;;;;;;23.35;100.00;99773.38;5074764;28;20187;-80
2022/08/28 03:32:05;;;;;;;21.48;7.30;;;;;;;23.34;100.00;99774.28;5059694;28;20226;-78
2022/08/28 03:34:33;;;;;;;26.08;7.47;;;;;;;23.11;100.00;99740.00;5089624;28;20213;-76
2022/08/28 03:37:00;;;;;;;36.30;7.15;;;;;;;23.17;100.00;99743.25;5073849;28;20593;-79
2022/08/28 03:39:26;;;;;;;24.98;8.20;;;;;;;23.32;100.00;99777.94;5074628;28;20187;-80
2022/08/28 03:41:55;;;;;;;26.50;8.00;;;;;;;23.26;100.00;99781.66;5073551;28;20210;-79
2022/08/28 03:44:21;;;;;;;20.13;8.18;;;;;;;23.09;100.00;99766.50;5054504;28;20203;-79
2022/08/28 03:46:48;;;;;;;17.83;7.47;;;;;;;23.14;100.00;99780.41;5090622;28;20575;-79
2022/08/28 03:49:15;;;;;;;30.15;8.15;;;;;;;23.17;100.00;99785.56;5076372;28;20199;-80
2022/08/28 03:51:42;;;;;;;35.50;8.00;;;;;;;23.26;100.00;99775.53;5080608;28;20223;-79
2022/08/28 03:54:09;;;;;;;19.30;7.55;;;;;;;23.33;100.00;99771.72;5071338;28;20207;-81
2022/08/28 03:56:36;;;;;;;35.45;7.30;;;;;;;23.41;100.00;99788.09;5068726;28;20666;-79
2022/08/28 03:59:05;;;;;;;22.05;7.53;;;;;;;23.44;100.00;99773.00;5072923;28;20209;-80
2022/08/28 04:01:32;;;;;;;28.13;8.25;;;;;;;23.59;100.00;99790.00;5028235;28;20265;-80
2022/08/28 04:03:59;;;;;;;31.67;8.07;;;;;;;23.75;100.00;99796.38;5037759;28;20195;-79
2022/08/28 04:06:27;;;;;;;25.42;8.55;;;;;;;23.90;100.00;99792.22;5072841;28;20655;-80
2022/08/28 04:08:54;;;;;;;21.02;8.50;;;;;;;24.02;100.00;99805.75;5079058;28;20206;-80
2022/08/28 04:11:21;;;;;;;25.02;8.20;;;;;;;24.22;100.00;99796.09;5091563;28;20198;-78
2022/08/28 04:13:48;;;;;;;22.10;8.52;;;;;;;24.29;100.00;99801.06;5092913;28;20700;-80
2022/08/28 04:16:17;;;;;;;23.05;7.70;;;;;;;24.42;100.00;99786.31;5087512;28;20202;-80
2022/08/28 04:18:46;;;;;;;26.20;7.78;;;;;;;24.61;100.00;99791.63;5080361;28;20392;-79
2022/08/28 04:21:16;;;;;;;16.27;7.18;;;;;;;25.01;100.00;99811.81;5092750;28;20662;-81
2022/08/28 04:23:44;;;;;;;18.67;7.13;;;;;;;25.08;100.00;99806.13;5092990;28;20194;-77
2022/08/28 04:26:14;;;;;;;19.45;6.88;;;;;;;25.40;100.00;99806.38;5076034;28;20283;-83
2022/08/28 04:28:41;;;;;;;24.67;7.40;;;;;;;25.61;100.00;99819.44;5077984;28;20650;-83
2022/08/28 04:31:08;;;;;;;24.55;8.00;;;;;;;25.77;100.00;99824.81;5079301;28;20194;-84
2022/08/28 04:33:38;;;;;;;30.90;7.72;;;;;;;26.07;100.00;99831.22;5076449;28;20226;-82
2022/08/28 04:36:07;;;;;;;29.20;7.80;;;;;;;25.94;100.00;99787.59;5092930;28;20194;-82
2022/08/28 04:38:35;;;;;;;22.50;7.82;;;;;;;26.32;100.00;99824.63;5090931;28;20217;-79
2022/08/28 04:41:04;;;;;;;19.40;7.00;;;;;;;26.71;100.00;99833.09;5092724;28;20933;-82
2022/08/28 04:43:30;;;;;;;26.38;7.10;;;;;;;26.97;100.00;99821.03;5090890;28;20194;-81
2022/08/28 04:45:58;;;;;;;26.85;7.00;;;;;;;27.29;99.51;99816.56;5078823;28;20202;-82
2022/08/28 04:48:25;;;;;;;18.35;6.75;;;;;;;27.54;96.64;99822.16;5077873;28;20194;-82
2022/08/28 04:50:53;;;;;;;23.77;7.85;;;;;;;27.89;95.06;99834.28;5080419;28;20207;-81
2022/08/28 04:53:20;;;;;;;27.83;7.68;;;;;;;28.26;93.91;99853.41;5072321;28;20233;-80
2022/08/28 04:55:49;;;;;;;28.85;7.20;;;;;;;28.00;91.92;99775.00;5083297;28;20194;-83
2022/08/28 04:58:17;;;;;;;29.80;8.55;;;;;;;28.59;91.67;99845.97;5084986;28;20586;-80
2022/08/28 05:00:47;;;;;;;25.35;7.78;;;;;;;28.45;89.96;99779.28;5078054;28;20246;-74
2022/08/28 05:03:15;;;;;;;26.20;7.97;;;;;;;29.20;87.61;99842.94;5084179;28;20194;-79
2022/08/28 05:05:43;;;;;;;22.42;7.68;;;;;;;29.62;83.80;99855.31;5078389;28;20248;-82
2022/08/28 05:08:12;;;;;;;35.00;9.13;;;;;;;29.91;81.23;99856.91;5076194;28;20600;-77
2022/08/28 05:10:40;;;;;;;30.02;8.02;;;;;;;29.99;79.29;99859.06;5063541;28;20251;-79
2022/08/28 05:13:08;;;;;;;29.65;7.85;;;;;;;30.22;78.01;99861.00;5062000;28;20229;-86
2022/08/28 05:15:38;;;;;;;28.90;7.68;;;;;;;30.43;77.66;99866.69;5055675;28;20194;-81
2022/08/28 05:18:05;;;;;;;29.70;7.78;;;;;;;30.27;78.10;99864.22;5073619;28;20214;-85
2022/08/28 05:20:36;;;;;;;30.25;8.93;;;;;;;30.33;77.79;99866.44;5069189;28;20205;-85
2022/08/28 05:23:04;;;;;;;20.67;7.25;;;;;;;30.64;74.53;99861.66;5070273;28;20202;-83
2022/08/28 05:25:35;;;;;;;25.95;7.57;;;;;;;30.82;73.77;99866.53;5070171;28;20221;-83
2022/08/28 05:28:02;;;;;;;36.20;8.65;;;;;;;30.76;73.87;99872.34;5054113;28;20238;-85
2022/08/28 05:30:29;;;;;;;18.40;7.63;;;;;;;30.47;76.01;99874.41;5088296;28;20201;-82
2022/08/28 05:32:56;;;;;;;24.73;7.93;;;;;;;30.32;77.53;99874.59;5084002;28;20830;-84
2022/08/28 05:35:23;;;;;;;26.75;8.63;;;;;;;30.43;77.51;99866.69;5077348;28;20206;-81
2022/08/28 05:37:51;;;;;;;17.75;7.97;;;;;;;29.78;81.62;99874.72;5066745;28;20247;-80
2022/08/28 05:40:19;;;;;;;28.23;8.38;;;;;;;29.13;86.62;99859.47;5053260;28;20202;-82
2022/08/28 05:42:47;;;;;;;16.08;8.48;;;;;;;28.50;92.78;99873.25;5055496;28;20202;-84
2022/08/28 05:45:14;;;;;;;19.50;7.82;;;;;;;28.04;97.64;99876.00;5081125;28;20194;-75
2022/08/28 05:47:42;;;;;;;24.38;8.88;;;;;;;27.66;100.00;99873.88;5071703;28;20203;-75
2022/08/28 05:50:10;;;;;;;30.17;8.18;;;;;;;27.51;100.00;99870.31;5022417;28;20203;-86
2022/08/28 05:52:38;;;;;;;24.48;8.25;;;;;;;27.69;100.00;99871.91;5071147;28;20235;-82
2022/08/28 05:55:06;;;;;;;24.70;8.57;;;;;;;27.80;100.00;99856.13;5039368;28;20206;-81
2022/08/28 05:57:33;;;;;;;22.95;8.45;;;;;;;27.91;100.00;99880.34;5076454;28;20190;-80
2022/08/28 06:00:02;;;;;;;27.95;8.23;;;;;;;27.56;100.00;99868.25;5071127;28;20195;-82
2022/08/28 06:02:29;;;;;;;24.40;7.82;;;;;;;27.53;100.00;99884.41;5070732;28;20205;-80
2022/08/28 06:04:56;;;;;;;29.23;8.10;;;;;;;27.25;100.00;99879.78;5076629;28;20675;-80
2022/08/28 06:07:23;;;;;;;29.48;8.43;;;;;;;27.29;100.00;99859.16;5035802;28;20744;-81
2022/08/28 06:09:50;;;;;;;28.58;8.15;;;;;;;27.39;100.00;99876.31;5034402;28;20570;-78
2022/08/28 06:12:17;;;;;;;22.70;8.77;;;;;;;27.38;100.00;99866.59;5073187;28;20226;-83
2022/08/28 06:14:44;;;;;;;32.78;8.70;;;;;;;27.16;100.00;99882.06;5035729;28;20195;-84
2022/08/28 06:17:12;;;;;;;21.58;8.38;;;;;;;27.33;100.00;99884.63;5071363;28;20206;-79
2022/08/28 06:19:39;;;;;;;28.45;7.90;;;;;;;27.02;100.00;99882.84;5025450;28;20210;-79
2022/08/28 06:22:06;;;;;;;20.30;8.18;;;;;;;27.05;100.00;99888.88;5071026;28;20221;-80
2022/08/28 06:24:34;;;;;;;26.80;8.57;;;;;;;27.21;91.68;99886.22;5080207;28;20225;-84
2022/08/28 06:27:01;;;;;;;26.98;7.18;;;;;;;27.19;82.78;99895.22;5081054;28;20230;-82
2022/08/28 06:29:28;;;;;;;20.95;7.50;;;;;;;27.24;82.81;99898.47;5070963;28;20202;-84
2022/08/28 06:31:56;;;;;;;24.00;7.35;;;;;;;27.18;84.38;99872.22;5071400;28;20619;-83
2022/08/28 06:34:25;;;;;;;22.13;6.85;;;;;;;27.37;83.41;99902.16;5064361;28;20250;-85
2022/08/28 06:36:52;;;;;;;22.45;6.32;;;;;;;27.16;82.52;99904.25;5069179;28;20207;-86
2022/08/28 06:39:19;;;;;;;21.67;6.82;;;;;;;27.21;82.31;99899.53;5068118;28;20235;-86
2022/08/28 06:41:46;;;;;;;16.92;6.25;;;;;;;27.26;78.82;99881.47;5059514;28;20203;-82
2022/08/28 06:44:18;;;;;;;27.30;6.43;;;;;;;27.41;77.34;99903.72;5061520;28;20200;-87
2022/08/28 06:46:46;;;;;;;30.48;6.55;;;;;;;27.42;79.58;99884.13;5057999;28;20210;-81
2022/08/28 06:49:13;;;;;;;26.13;7.22;;;;;;;27.65;78.04;99912.16;5062219;28;20222;-80
2022/08/28 06:51:42;;;;;;;27.63;6.50;;;;;;;27.63;79.10;99914.03;5063055;28;20199;-82
2022/08/28 06:54:09;;;;;;;22.38;6.20;;;;;;;27.79;77.47;99897.06;5058227;28;20227;-79
2022/08/28 06:56:37;;;;;;;24.23;6.25;;;;;;;27.97;76.26;99914.63;5074483;28;20202;-82
2022/08/28 06:59:04;;;;;;;21.52;5.72;;;;;;;27.95;74.95;99913.88;5077000;28;20206;-83
2022/08/28 07:01:33;;;;;;;23.35;6.05;;;;;;;28.02;73.95;99911.69;5073931;28;20206;-81
2022/08/28 07:04:03;;;;;;;35.38;5.95;;;;;;;27.91;72.71;99901.69;5078234;28;20576;-81
2022/08/28 07:06:33;;;;;;;24.63;6.65;;;;;;;27.91;74.21;99915.00;5076415;28;20199;-81
2022/08/28 07:09:01;;;;;;;21.83;5.55;;;;;;;28.02;74.59;99914.38;5074128;28;20263;-81
2022/08/28 07:11:31;;;;;;;26.38;6.10;;;;;;;28.08;73.80;99898.91;5074209;28;20596;-80
2022/08/28 07:13:59;;;;;;;25.73;5.38;;;;;;;27.92;71.19;99879.41;5074006;28;20231;-76
2022/08/28 07:16:28;;;;;;;16.50;5.90;;;;;;;28.26;68.53;99899.59;5074117;28;20701;-81
2022/08/28 07:18:55;;;;;;;18.58;5.13;;;;;;;28.55;66.11;99919.16;5073898;28;20584;-81
2022/08/28 07:21:22;;;;;;;21.58;6.63;;;;;;;28.44;65.91;99886.94;5073611;28;20641;-80
2022/08/28 07:23:50;;;;;;;25.70;5.65;;;;;;;28.68;64.99;99901.47;5074229;28;20199;-81
2022/08/28 07:26:21;;;;;;;18.52;5.70;;;;;;;28.77;66.20;99916.91;5073849;28;20246;-82
2022/08/28 07:28:48;;;;;;;22.45;5.57;;;;;;;28.43;66.16;99842.56;5075541;28;20190;-82
2022/08/28 07:31:17;;;;;;;25.50;5.43;;;;;;;28.92;65.78;99913.28;5075884;28;20195;-81
2022/08/28 07:33:44;;;;;;;17.15;5.28;;;;;;;28.81;65.78;99874.88;5086263;28;20351;-79
2022/08/28 07:36:14;;;;;;;26.25;7.05;;;;;;;29.13;70.55;99908.41;5091914;28;20277;-84
2022/08/28 07:38:41;;;;;;;16.15;6.60;;;;;;;29.27;70.35;99907.53;5076775;28;20221;-84
2022/08/28 07:41:13;;;;;;;35.78;6.70;;;;;;;29.12;70.87;99892.47;5054480;28;20210;-83
2022/08/28 07:46:26;;;;;;;27.02;6.55;;;;;;;29.37;72.46;99908.66;5073343;28;20206;-81
2022/08/28 07:48:53;;;;;;;25.70;7.05;;;;;;;29.35;72.76;99899.91;5075247;28;20225;-77
2022/08/28 07:51:20;;;;;;;24.77;7.25;;;;;;;29.27;73.21;99891.50;5093362;28;20299;-81
2022/08/28 07:53:47;;;;;;;27.92;6.97;;;;;;;29.45;73.29;99911.69;5093637;28;20233;-82
2022/08/28 07:56:13;;;;;;;20.30;6.70;;;;;;;29.56;74.12;99903.81;5092508;28;20209;-82
2022/08/28 07:58:42;;;;;;;21.85;6.93;;;;;;;29.71;75.43;99892.13;5088989;28;20209;-83
2022/08/28 08:01:08;;;;;;;24.13;7.25;;;;;;;29.73;74.32;99894.69;5073038;28;20210;-82
2022/08/28 08:03:35;;;;;;;20.77;6.93;;;;;;;29.57;75.61;99910.91;5071621;28;20214;-80
2022/08/28 08:06:04;;;;;;;25.23;7.53;;;;;;;29.71;75.90;99897.47;5029283;28;20218;-80
2022/08/28 08:08:33;;;;;;;33.17;6.78;;;;;;;28.94;78.71;99831.28;5052486;28;20203;-85
2022/08/28 08:11:03;;;;;;;18.95;7.30;;;;;;;29.40;77.39;99903.09;5052334;28;20269;-82
2022/08/28 08:13:32;;;;;;;19.73;6.80;;;;;;;29.61;78.94;99906.22;5033330;28;20230;-88
2022/08/28 08:16:06;;;;;;;21.75;7.20;;;;;;;29.87;77.27;99902.66;5054972;28;20195;-84
2022/08/28 08:18:33;;;;;;;17.17;6.20;;;;;;;30.00;74.86;99904.41;5081934;28;20210;-81
2022/08/28 08:21:00;;;;;;;20.25;6.72;;;;;;;30.02;74.27;99902.50;5052946;28;20206;-91
2022/08/28 08:23:27;;;;;;;134.00;83.32;;;;;;;30.09;74.70;99908.28;5048186;28;20206;-85
2022/08/28 08:25:55;;;;;;;135.68;82.95;;;;;;;30.10;75.45;99893.09;5083216;28;20206;-82
2022/08/28 08:28:22;;;;;;;33.10;6.55;;;;;;;29.91;73.85;99872.94;5073420;28;20293;-86
2022/08/28 08:30:49;;;;;;;24.83;6.07;;;;;;;30.23;72.34;99888.59;5073172;28;20206;-87
2022/08/28 08:33:18;;;;;;;20.35;5.97;;;;;;;30.13;71.56;99908.94;5072441;28;20230;-83
2022/08/28 08:35:45;;;;;;;14.95;5.72;;;;;;;29.92;72.72;99874.66;5069506;28;20212;-82
2022/08/28 08:38:12;;;;;;;23.42;6.50;;;;;;;30.36;71.68;99908.19;5092412;28;20273;-85
2022/08/28 08:40:39;;;;;;;27.65;7.75;;;;;;;30.40;71.56;99905.19;5056839;28;20193;-85
2022/08/28 08:43:06;;;;;;;24.25;7.35;;;;;;;30.62;71.26;99896.56;5078557;28;20198;-85
2022/08/28 08:45:36;;;;;;;34.35;8.15;;;;;;;30.51;70.38;99912.50;5071869;28;20202;-86
2022/08/28 08:48:03;;;;;;;25.20;8.57;;;;;;;30.61;73.15;99900.19;5071537;28;20694;-83
2022/08/28 08:50:34;;;;;;;27.48;7.65;;;;;;;30.86;70.45;99910.88;5073134;28;20202;-86
2022/08/28 08:53:15;;;;;;;24.65;7.18;;;;;;;31.11;68.10;99906.50;5091679;28;20634;-87
2022/08/28 08:55:45;;;;;;;33.85;8.07;;;;;;;31.18;66.07;99895.19;5054929;28;20697;-86
2022/08/28 08:58:19;;;;;;;27.98;8.45;;;;;;;31.14;64.12;99903.59;5055374;28;20920;-84
2022/08/28 09:00:56;;;;;;;32.20;7.95;;;;;;;31.18;64.84;99899.72;5069647;28;20642;-84
2022/08/28 09:03:26;;;;;;;25.45;6.78;;;;;;;31.17;63.17;99903.34;5077499;28;20198;-81
2022/08/28 09:05:58;;;;;;;23.58;6.18;;;;;;;31.22;63.50;99879.75;5071185;28;20202;-84
2022/08/28 09:08:35;;;;;;;30.58;7.20;;;;;;;31.48;62.54;99902.81;5071219;28;20670;-86
2022/08/28 09:11:12;;;;;;;24.88;7.72;;;;;;;31.49;67.86;99888.44;5073601;28;20673;-76
2022/08/28 09:13:48;;;;;;;25.67;8.35;;;;;;;31.89;71.63;99897.06;5082986;28;20731;-82
2022/08/28 09:16:23;;;;;;;28.85;7.72;;;;;;;31.98;81.15;99896.34;5070859;28;20280;-80
2022/08/28 09:18:50;;;;;;;24.20;7.22;;;;;;;32.42;66.17;99901.88;5071562;28;20198;-82
2022/08/28 09:21:27;;;;;;;23.20;6.82;;;;;;;32.61;59.97;99903.13;5036022;28;20205;-80
2022/08/28 09:23:54;;;;;;;31.23;7.38;;;;;;;32.48;58.14;99889.78;5070742;28;20198;-81
2022/08/28 09:26:23;;;;;;;27.50;6.28;;;;;;;32.25;60.26;99898.81;5087033;28;20236;-82
2022/08/28 09:29:00;;;;;;;22.73;7.00;;;;;;;32.36;62.06;99904.16;5091578;28;20205;-77
2022/08/28 09:31:35;;;;;;;35.47;6.78;;;;;;;32.56;57.91;99898.09;5091066;28;20228;-74
2022/08/28 09:34:24;;;;;;;29.33;6.53;;;;;;;32.68;59.27;99905.22;5070684;28;20226;-82
2022/08/28 09:36:54;;;;;;;20.85;6.07;;;;;;;32.58;56.81;99912.25;5085023;28;20198;-81
2022/08/28 09:39:24;;;;;;;25.80;6.22;;;;;;;32.46;56.49;99894.44;5051508;28;20217;-82
2022/08/28 09:44:53;;;;;;;26.88;6.68;;;;;;;32.81;53.03;99895.22;5070287;28;20244;-81
2022/08/28 09:47:40;;;;;;;30.48;6.55;;;;;;;32.57;52.27;99893.59;5070072;28;20634;-80
2022/08/28 09:50:32;;;;;;;17.90;6.32;;;;;;;32.80;52.05;99896.19;5080892;28;20206;-79
2022/08/28 09:53:17;;;;;;;25.88;5.88;;;;;;;32.74;52.33;99874.34;5070497;28;20217;-81
2022/08/28 09:55:57;;;;;;;31.10;5.75;;;;;;;32.84;51.96;99892.28;5061036;28;20199;-82
2022/08/28 09:58:32;;;;;;;21.80;6.20;;;;;;;32.92;52.13;99887.16;5058836;28;20674;-80
2022/08/28 10:01:08;;;;;;;25.65;5.80;;;;;;;33.00;52.47;99874.94;5070586;28;20205;-77
2022/08/28 10:03:43;;;;;;;24.38;6.63;;;;;;;33.21;51.49;99886.66;5074112;28;20206;-79
2022/08/28 10:06:18;;;;;;;32.13;6.38;;;;;;;33.35;51.21;99878.31;5070781;28;20197;-82
2022/08/28 10:08:59;;;;;;;25.33;6.32;;;;;;;33.42;51.16;99882.19;5070788;28;20201;-81
2022/08/28 10:11:37;;;;;;;22.92;5.78;;;;;;;33.44;50.17;99882.06;5067704;28;20197;-82
2022/08/28 10:14:13;;;;;;;25.50;7.00;;;;;;;33.24;49.83;99878.34;5064918;28;20296;-81
2022/08/28 10:16:51;;;;;;;30.50;6.65;;;;;;;32.87;49.64;99799.84;5073858;28;20892;-75
2022/08/28 10:19:32;;;;;;;53.47;21.00;;;;;;;33.24;48.73;99873.81;5063034;28;20267;-86
2022/08/28 10:22:08;;;;;;;27.65;6.15;;;;;;;33.16;47.50;99881.66;5072203;28;20196;-81
2022/08/28 10:24:54;;;;;;;28.80;6.43;;;;;;;33.28;46.21;99852.91;5073032;28;20206;-81
2022/08/28 10:27:34;;;;;;;24.90;5.70;;;;;;;33.38;46.32;99875.38;5082293;28;20232;-80
2022/08/28 10:30:07;;;;;;;22.42;5.50;;;;;;;33.71;46.36;99867.19;5071963;28;20208;-78
2022/08/28 10:32:58;;;;;;;27.40;6.18;;;;;;;33.79;44.66;99851.25;5070809;28;20260;-78
2022/08/28 10:35:29;;;;;;;33.42;6.03;;;;;;;33.61;44.81;99817.81;5072475;28;20218;-84
2022/08/28 10:38:05;;;;;;;28.20;6.43;;;;;;;33.97;44.38;99872.19;5072766;28;20205;-78
2022/08/28 10:40:38;;;;;;;32.47;7.22;;;;;;;33.75;44.79;99830.97;5081270;28;20284;-79
2022/08/28 10:43:10;;;;;;;25.42;6.28;;;;;;;33.80;44.09;99838.66;5069608;28;20210;-80
2022/08/28 10:45:48;;;;;;;33.63;6.60;;;;;;;34.09;43.62;99860.41;5068759;28;20210;-81
2022/08/28 10:48:22;;;;;;;31.73;6.43;;;;;;;34.09;41.25;99863.94;5069979;28;20205;-80
2022/08/28 10:50:53;;;;;;;27.63;6.20;;;;;;;33.83;39.92;99866.16;5085389;28;20221;-79
2022/08/28 10:53:26;;;;;;;22.75;5.10;;;;;;;33.97;39.79;99861.44;5070605;28;20229;-84
2022/08/28 10:56:01;;;;;;;31.35;6.40;;;;;;;33.97;39.18;99867.69;5076599;28;20304;-87
2022/08/28 10:58:30;;;;;;;43.22;7.25;;;;;;;33.72;40.08;99798.97;5075656;28;20273;-86
2022/08/28 11:01:01;;;;;;;26.30;5.50;;;;;;;34.29;38.69;99864.94;5070119;28;20201;-86
2022/08/28 11:03:31;;;;;;;34.15;5.85;;;;;;;34.37;39.54;99862.44;5061189;28;20646;-76
2022/08/28 11:06:04;;;;;;;18.13;6.05;;;;;;;33.95;39.66;99841.88;5076494;28;20226;-75
2022/08/28 11:08:33;;;;;;;14.18;4.55;;;;;;;33.81;37.13;99840.38;5070489;28;20213;-79
2022/08/28 11:11:05;;;;;;;17.75;5.13;;;;;;;34.26;37.23;99860.69;5071042;28;20187;-80
2022/08/28 11:13:54;;;;;;;22.50;5.00;;;;;;;34.40;36.48;99859.47;5072768;28;20209;-79
2022/08/28 11:16:24;;;;;;;21.25;6.32;;;;;;;34.53;35.67;99859.28;5068950;28;20286;-79
2022/08/28 11:19:32;;;;;;;29.00;4.95;;;;;;;34.71;35.72;99853.13;5070101;28;20202;-78
2022/08/28 11:22:03;;;;;;;24.02;5.85;;;;;;;34.82;36.03;99844.94;5069202;28;20206;-80
2022/08/28 11:24:44;;;;;;;23.95;5.25;;;;;;;34.82;35.00;99850.31;5058586;28;20662;-75
2022/08/28 11:27:31;;;;;;;32.63;5.95;;;;;;;34.84;34.15;99837.59;5049384;28;20242;-79
2022/08/28 11:30:18;;;;;;;23.42;5.15;;;;;;;34.74;33.62;99844.78;5031222;28;20196;-82
2022/08/28 11:33:10;;;;;;;20.60;6.22;;;;;;;34.68;33.08;99857.94;5019733;28;20195;-80
2022/08/28 11:35:47;;;;;;;56.17;29.23;;;;;;;34.76;33.04;99834.72;5014636;28;20219;-81
2022/08/28 11:38:46;;;;;;;11.93;4.40;;;;;;;34.95;32.47;99850.09;4982803;28;20230;-80
2022/08/28 11:41:16;;;;;;;23.77;4.25;;;;;;;34.79;32.17;99841.66;5021162;28;20690;-81
2022/08/28 11:43:46;;;;;;;18.02;4.20;;;;;;;34.84;32.02;99848.38;5030604;28;20203;-82